sensor_id;sensor_type;location;lat;lon;timestamp;pressure;altitude;pressure_sealevel;temperature;humidity
78483;BME280;67772;50.158;8.658;2023-03-02T00:00:59;100929.72;;;0.97;58.25
78483;BME280;67772;50.158;8.658;2023-03-02T00:03:26;100921.50;;;1.00;58.33
78483;BME280;67772;50.158;8.658;2023-03-02T00:05:53;100936.97;;;0.95;58.88
78483;BME280;67772;50.158;8.658;2023-03-02T00:08:19;100920.25;;;0.88;58.52
78483;BME280;67772;50.158;8.658;2023-03-02T00:10:44;100930.41;;;0.91;58.42
78483;BME280;67772;50.158;8.658;2023-03-02T00:13:11;100936.47;;;0.92;58.65
78483;BME280;67772;50.158;8.658;2023-03-02T00:15:37;100935.16;;;0.96;58.24
78483;BME280;67772;50.158;8.658;2023-03-02T00:18:02;100938.59;;;0.96;58.30
78483;BME280;67772;50.158;8.658;2023-03-02T00:20:27;100936.28;;;1.01;58.40
78483;BME280;67772;50.158;8.658;2023-03-02T00:22:53;100934.63;;;1.00;58.72
78483;BME280;67772;50.158;8.658;2023-03-02T00:25:18;100935.28;;;1.02;58.04
78483;BME280;67772;50.158;8.658;2023-03-02T00:27:43;100933.97;;;0.98;58.44
78483;BME280;67772;50.158;8.658;2023-03-02T00:30:10;100925.50;;;0.88;58.74
78483;BME280;67772;50.158;8.658;2023-03-02T00:32:36;100926.44;;;0.95;58.95
78483;BME280;67772;50.158;8.658;2023-03-02T00:35:02;100926.44;;;0.95;58.42
78483;BME280;67772;50.158;8.658;2023-03-02T00:37:27;100926.94;;;0.90;58.88
78483;BME280;67772;50.158;8.658;2023-03-02T00:39:53;100927.59;;;0.93;58.85
78483;BME280;67772;50.158;8.658;2023-03-02T00:42:19;100927.94;;;0.89;58.94
78483;BME280;67772;50.158;8.658;2023-03-02T00:44:45;100916.81;;;0.79;58.99
78483;BME280;67772;50.158;8.658;2023-03-02T00:47:10;100915.94;;;0.95;58.41
78483;BME280;67772;50.158;8.658;2023-03-02T00:49:36;100919.91;;;0.83;58.82
78483;BME280;67772;50.158;8.658;2023-03-02T00:52:02;100927.63;;;0.76;59.12
78483;BME280;67772;50.158;8.658;2023-03-02T00:54:28;100915.47;;;0.83;59.17
78483;BME280;67772;50.158;8.658;2023-03-02T00:56:53;100911.38;;;0.81;59.54
78483;BME280;67772;50.158;8.658;2023-03-02T00:59:18;100908.09;;;0.79;59.01
78483;BME280;67772;50.158;8.658;2023-03-02T01:01:57;100909.41;;;0.75;59.22
78483;BME280;67772;50.158;8.658;2023-03-02T01:04:27;100907.63;;;0.75;59.73
78483;BME280;67772;50.158;8.658;2023-03-02T01:06:56;100906.13;;;0.73;59.83
78483;BME280;67772;50.158;8.658;2023-03-02T01:09:22;100908.13;;;0.71;59.54
78483;BME280;67772;50.158;8.658;2023-03-02T01:11:47;100909.13;;;0.62;59.75
78483;BME280;67772;50.158;8.658;2023-03-02T01:14:12;100902.22;;;0.61;60.80
78483;BME280;67772;50.158;8.658;2023-03-02T01:16:38;100900.75;;;0.58;60.43
78483;BME280;67772;50.158;8.658;2023-03-02T01:19:03;100907.16;;;0.64;60.47
78483;BME280;67772;50.158;8.658;2023-03-02T01:21:28;100901.44;;;0.52;60.98
78483;BME280;67772;50.158;8.658;2023-03-02T01:23:53;100899.13;;;0.57;60.64
78483;BME280;67772;50.158;8.658;2023-03-02T01:26:19;100898.63;;;0.62;60.48
78483;BME280;67772;50.158;8.658;2023-03-02T01:28:44;100894.69;;;0.58;60.27
78483;BME280;67772;50.158;8.658;2023-03-02T01:31:09;100893.69;;;0.59;60.39
78483;BME280;67772;50.158;8.658;2023-03-02T01:33:35;100889.59;;;0.64;60.31
78483;BME280;67772;50.158;8.658;2023-03-02T01:36:00;100889.13;;;0.53;60.19
78483;BME280;67772;50.158;8.658;2023-03-02T01:38:26;100886.81;;;0.50;60.74
78483;BME280;67772;50.158;8.658;2023-03-02T01:40:51;100886.50;;;0.45;61.38
78483;BME280;67772;50.158;8.658;2023-03-02T01:43:16;100878.28;;;0.48;60.92
78483;BME280;67772;50.158;8.658;2023-03-02T01:48:14;100869.13;;;0.44;60.60
78483;BME280;67772;50.158;8.658;2023-03-02T01:50:40;100871.44;;;0.39;61.42
78483;BME280;67772;50.158;8.658;2023-03-02T01:53:05;100868.94;;;0.37;61.23
78483;BME280;67772;50.158;8.658;2023-03-02T01:55:32;100875.03;;;0.30;61.54
78483;BME280;67772;50.158;8.658;2023-03-02T01:58:01;100867.81;;;0.32;61.51
78483;BME280;67772;50.158;8.658;2023-03-02T02:00:31;100864.03;;;0.34;61.34
78483;BME280;67772;50.158;8.658;2023-03-02T02:03:00;100856.34;;;0.33;61.46
78483;BME280;67772;50.158;8.658;2023-03-02T02:05:33;100856.00;;;0.28;61.54
78483;BME280;67772;50.158;8.658;2023-03-02T02:08:00;100848.13;;;0.28;61.19
78483;BME280;67772;50.158;8.658;2023-03-02T02:10:26;100851.75;;;0.27;61.51
78483;BME280;67772;50.158;8.658;2023-03-02T02:12:52;100848.78;;;0.22;62.04
78483;BME280;67772;50.158;8.658;2023-03-02T02:15:17;100853.91;;;0.15;61.96
78483;BME280;67772;50.158;8.658;2023-03-02T02:17:42;100854.72;;;0.16;62.17
78483;BME280;67772;50.158;8.658;2023-03-02T02:20:31;100845.84;;;0.17;61.96
78483;BME280;67772;50.158;8.658;2023-03-02T02:23:18;100849.31;;;0.17;61.75
78483;BME280;67772;50.158;8.658;2023-03-02T02:28:43;100846.53;;;0.11;62.27
78483;BME280;67772;50.158;8.658;2023-03-02T02:31:43;100838.34;;;0.14;62.05
78483;BME280;67772;50.158;8.658;2023-03-02T02:36:38;100837.69;;;0.12;62.69
78483;BME280;67772;50.158;8.658;2023-03-02T02:39:07;100831.44;;;0.13;62.17
78483;BME280;67772;50.158;8.658;2023-03-02T02:41:37;100836.38;;;0.08;62.49
78483;BME280;67772;50.158;8.658;2023-03-02T02:44:03;100832.44;;;0.04;62.81
78483;BME280;67772;50.158;8.658;2023-03-02T02:46:30;100820.81;;;-0.02;62.87
78483;BME280;67772;50.158;8.658;2023-03-02T02:48:55;100823.91;;;0.02;62.85
78483;BME280;67772;50.158;8.658;2023-03-02T02:51:25;100828.50;;;-0.01;62.79
78483;BME280;67772;50.158;8.658;2023-03-02T02:53:59;100829.81;;;0.04;62.50
78483;BME280;67772;50.158;8.658;2023-03-02T02:56:28;100826.53;;;0.02;62.59
78483;BME280;67772;50.158;8.658;2023-03-02T02:58:55;100821.59;;;-0.02;62.37
78483;BME280;67772;50.158;8.658;2023-03-02T03:01:23;100816.69;;;-0.05;62.92
78483;BME280;67772;50.158;8.658;2023-03-02T03:04:01;100816.22;;;-0.08;62.92
78483;BME280;67772;50.158;8.658;2023-03-02T03:06:29;100817.34;;;-0.03;62.89
78483;BME280;67772;50.158;8.658;2023-03-02T03:09:04;100814.75;;;-0.03;63.00
78483;BME280;67772;50.158;8.658;2023-03-02T03:11:35;100808.34;;;0.00;62.67
78483;BME280;67772;50.158;8.658;2023-03-02T03:14:13;100804.06;;;-0.01;62.55
78483;BME280;67772;50.158;8.658;2023-03-02T03:16:42;100812.78;;;0.08;62.31
78483;BME280;67772;50.158;8.658;2023-03-02T03:19:16;100804.56;;;0.03;62.18
78483;BME280;67772;50.158;8.658;2023-03-02T03:21:42;100808.34;;;0.00;62.46
78483;BME280;67772;50.158;8.658;2023-03-02T03:24:08;100812.59;;;0.01;62.39
78483;BME280;67772;50.158;8.658;2023-03-02T03:26:33;100808.66;;;-0.03;62.62
78483;BME280;67772;50.158;8.658;2023-03-02T03:28:59;100803.59;;;0.04;62.50
78483;BME280;67772;50.158;8.658;2023-03-02T03:31:26;100793.75;;;-0.03;62.51
78483;BME280;67772;50.158;8.658;2023-03-02T03:33:53;100802.59;;;-0.04;62.64
78483;BME280;67772;50.158;8.658;2023-03-02T03:36:19;100798.34;;;-0.05;62.78
78483;BME280;67772;50.158;8.658;2023-03-02T03:38:44;100800.63;;;-0.02;62.09
78483;BME280;67772;50.158;8.658;2023-03-02T03:41:09;100805.88;;;-0.02;62.54
78483;BME280;67772;50.158;8.658;2023-03-02T03:43:34;100806.69;;;0.07;62.21
78483;BME280;67772;50.158;8.658;2023-03-02T03:46:00;100799.00;;;0.06;62.46
78483;BME280;67772;50.158;8.658;2023-03-02T03:48:25;100803.59;;;0.12;61.93
78483;BME280;67772;50.158;8.658;2023-03-02T03:50:51;100811.59;;;0.02;62.19
78483;BME280;67772;50.158;8.658;2023-03-02T03:53:16;100806.34;;;0.02;62.23
78483;BME280;67772;50.158;8.658;2023-03-02T03:55:41;100808.66;;;0.05;62.34
78483;BME280;67772;50.158;8.658;2023-03-02T03:58:06;100798.66;;;0.00;62.22
78483;BME280;67772;50.158;8.658;2023-03-02T04:00:32;100806.88;;;0.06;61.89
78483;BME280;67772;50.158;8.658;2023-03-02T04:02:57;100808.84;;;-0.05;62.18
78483;BME280;67772;50.158;8.658;2023-03-02T04:05:22;100807.53;;;-0.09;62.57
78483;BME280;67772;50.158;8.658;2023-03-02T04:07:48;100813.72;;;-0.10;62.45
78483;BME280;67772;50.158;8.658;2023-03-02T04:10:13;100814.72;;;-0.11;62.52
78483;BME280;67772;50.158;8.658;2023-03-02T04:12:40;100813.72;;;-0.10;62.48
78483;BME280;67772;50.158;8.658;2023-03-02T04:15:07;100811.13;;;-0.10;62.62
78483;BME280;67772;50.158;8.658;2023-03-02T04:17:33;100817.19;;;-0.09;62.62
78483;BME280;67772;50.158;8.658;2023-03-02T04:19:58;100817.34;;;-0.11;62.69
78483;BME280;67772;50.158;8.658;2023-03-02T04:22:24;100814.56;;;-0.09;62.84
78483;BME280;67772;50.158;8.658;2023-03-02T04:24:50;100826.34;;;-0.13;62.49
78483;BME280;67772;50.158;8.658;2023-03-02T04:27:16;100823.06;;;-0.15;62.60
78483;BME280;67772;50.158;8.658;2023-03-02T04:29:42;100820.78;;;-0.18;62.65
78483;BME280;67772;50.158;8.658;2023-03-02T04:32:10;100819.63;;;-0.16;62.39
78483;BME280;67772;50.158;8.658;2023-03-02T04:34:38;100824.56;;;-0.13;62.50
78483;BME280;67772;50.158;8.658;2023-03-02T04:37:04;100821.44;;;-0.16;62.43
78483;BME280;67772;50.158;8.658;2023-03-02T04:39:29;100816.69;;;-0.21;62.45
78483;BME280;67772;50.158;8.658;2023-03-02T04:41:55;100800.47;;;-0.32;62.69
78483;BME280;67772;50.158;8.658;2023-03-02T04:44:20;100811.78;;;-0.24;62.58
78483;BME280;67772;50.158;8.658;2023-03-02T04:46:46;100818.34;;;-0.20;62.38
78483;BME280;67772;50.158;8.658;2023-03-02T04:49:13;100810.78;;;-0.15;62.24
78483;BME280;67772;50.158;8.658;2023-03-02T04:51:41;100820.63;;;-0.17;62.15
78483;BME280;67772;50.158;8.658;2023-03-02T04:54:11;100825.06;;;-0.09;61.90
78483;BME280;67772;50.158;8.658;2023-03-02T04:56:37;100823.72;;;-0.13;62.20
78483;BME280;67772;50.158;8.658;2023-03-02T04:59:02;100822.59;;;-0.11;61.90
78483;BME280;67772;50.158;8.658;2023-03-02T05:01:28;100827.34;;;-0.14;62.00
78483;BME280;67772;50.158;8.658;2023-03-02T05:03:53;100823.25;;;-0.17;62.22
78483;BME280;67772;50.158;8.658;2023-03-02T05:06:19;100827.34;;;-0.14;61.90
78483;BME280;67772;50.158;8.658;2023-03-02T05:08:46;100821.94;;;-0.21;62.09
78483;BME280;67772;50.158;8.658;2023-03-02T05:11:13;100825.84;;;-0.25;62.18
78483;BME280;67772;50.158;8.658;2023-03-02T05:13:55;100830.78;;;-0.22;62.28
78483;BME280;67772;50.158;8.658;2023-03-02T05:16:22;100821.75;;;-0.19;62.21
78483;BME280;67772;50.158;8.658;2023-03-02T05:18:47;100816.69;;;-0.29;62.47
78483;BME280;67772;50.158;8.658;2023-03-02T05:21:14;100817.34;;;-0.27;62.66
78483;BME280;67772;50.158;8.658;2023-03-02T05:23:41;100823.72;;;-0.21;62.40
78483;BME280;67772;50.158;8.658;2023-03-02T05:26:07;100822.75;;;-0.20;62.32
78483;BME280;67772;50.158;8.658;2023-03-02T05:28:32;100822.94;;;-0.22;62.18
78483;BME280;67772;50.158;8.658;2023-03-02T05:30:58;100836.84;;;-0.21;61.96
78483;BME280;67772;50.158;8.658;2023-03-02T05:33:23;100820.44;;;-0.23;62.22
78483;BME280;67772;50.158;8.658;2023-03-02T05:35:48;100828.16;;;0.03;61.22
78483;BME280;67772;50.158;8.658;2023-03-02T05:38:14;100825.38;;;-0.12;61.17
78483;BME280;67772;50.158;8.658;2023-03-02T05:40:40;100837.66;;;-0.21;61.84
78483;BME280;67772;50.158;8.658;2023-03-02T05:43:06;100837.00;;;-0.23;62.12
78483;BME280;67772;50.158;8.658;2023-03-02T05:45:34;100835.38;;;-0.24;62.15
78483;BME280;67772;50.158;8.658;2023-03-02T05:48:00;100824.88;;;-0.16;61.62
78483;BME280;67772;50.158;8.658;2023-03-02T05:50:26;100832.91;;;-0.17;61.79
78483;BME280;67772;50.158;8.658;2023-03-02T05:52:51;100835.22;;;-0.22;61.87
78483;BME280;67772;50.158;8.658;2023-03-02T05:55:17;100835.22;;;-0.22;61.62
78483;BME280;67772;50.158;8.658;2023-03-02T05:57:42;100840.63;;;-0.24;61.71
78483;BME280;67772;50.158;8.658;2023-03-02T06:00:10;100842.22;;;-0.31;61.88
78483;BME280;67772;50.158;8.658;2023-03-02T06:02:36;100844.88;;;-0.23;62.47
78483;BME280;67772;50.158;8.658;2023-03-02T06:05:06;100845.19;;;-0.18;61.31
78483;BME280;67772;50.158;8.658;2023-03-02T06:07:31;100845.34;;;-0.19;61.67
78483;BME280;67772;50.158;8.658;2023-03-02T06:09:56;100848.16;;;-0.13;61.76
78483;BME280;67772;50.158;8.658;2023-03-02T06:12:22;100841.94;;;0.05;60.81
78483;BME280;67772;50.158;8.658;2023-03-02T06:14:47;100836.19;;;0.01;60.90
78483;BME280;67772;50.158;8.658;2023-03-02T06:17:12;100837.16;;;0.08;60.86
78483;BME280;67772;50.158;8.658;2023-03-02T06:19:38;100839.00;;;0.16;60.75
78483;BME280;67772;50.158;8.658;2023-03-02T06:22:03;100843.22;;;0.25;60.00
78483;BME280;67772;50.158;8.658;2023-03-02T06:24:28;100849.44;;;0.48;58.76
78483;BME280;67772;50.158;8.658;2023-03-02T06:26:54;100846.50;;;0.43;58.94
78483;BME280;67772;50.158;8.658;2023-03-02T06:29:20;100849.44;;;0.40;59.35
78483;BME280;67772;50.158;8.658;2023-03-02T06:31:46;100843.22;;;0.41;59.49
78483;BME280;67772;50.158;8.658;2023-03-02T06:34:11;100853.19;;;0.45;59.47
78483;BME280;67772;50.158;8.658;2023-03-02T06:36:36;100854.38;;;0.51;59.39
78483;BME280;67772;50.158;8.658;2023-03-02T06:39:06;100850.72;;;0.60;58.93
78483;BME280;67772;50.158;8.658;2023-03-02T06:41:32;100849.72;;;0.61;58.82
78483;BME280;67772;50.158;8.658;2023-03-02T06:44:01;100842.94;;;0.82;58.19
78483;BME280;67772;50.158;8.658;2023-03-02T06:46:26;100848.03;;;0.84;57.88
78483;BME280;67772;50.158;8.658;2023-03-02T06:48:51;100855.28;;;0.82;58.14
78483;BME280;67772;50.158;8.658;2023-03-02T06:51:17;100850.28;;;0.95;57.45
78483;BME280;67772;50.158;8.658;2023-03-02T06:53:42;100854.38;;;1.06;57.30
78483;BME280;67772;50.158;8.658;2023-03-02T06:56:08;100860.56;;;1.13;56.88
78483;BME280;67772;50.158;8.658;2023-03-02T06:58:34;100860.22;;;1.16;56.78
78483;BME280;67772;50.158;8.658;2023-03-02T07:01:00;100858.72;;;1.21;56.85
78483;BME280;67772;50.158;8.658;2023-03-02T07:03:25;100868.69;;;1.34;56.14
78483;BME280;67772;50.158;8.658;2023-03-02T07:05:50;100853.97;;;1.47;55.88
78483;BME280;67772;50.158;8.658;2023-03-02T07:08:16;100862.13;;;1.60;55.30
78483;BME280;67772;50.158;8.658;2023-03-02T07:10:41;100863.03;;;1.75;55.39
78483;BME280;67772;50.158;8.658;2023-03-02T07:13:07;100863.19;;;1.97;54.28
78483;BME280;67772;50.158;8.658;2023-03-02T07:15:32;100859.31;;;2.30;53.49
78483;BME280;67772;50.158;8.658;2023-03-02T07:17:57;100862.34;;;2.56;52.72
78483;BME280;67772;50.158;8.658;2023-03-02T07:20:22;100865.53;;;2.81;51.29
78483;BME280;67772;50.158;8.658;2023-03-02T07:22:48;100861.53;;;3.14;50.61
78483;BME280;67772;50.158;8.658;2023-03-02T07:25:13;100863.72;;;3.60;49.33
78483;BME280;67772;50.158;8.658;2023-03-02T07:27:39;100862.56;;;4.88;46.07
78483;BME280;67772;50.158;8.658;2023-03-02T07:30:06;100862.81;;;6.79;41.56
78483;BME280;67772;50.158;8.658;2023-03-02T07:32:31;100865.78;;;7.60;40.20
78483;BME280;67772;50.158;8.658;2023-03-02T07:34:57;100852.63;;;8.09;37.80
78483;BME280;67772;50.158;8.658;2023-03-02T07:37:22;100858.72;;;7.85;37.85
78483;BME280;67772;50.158;8.658;2023-03-02T07:39:48;100865.38;;;7.63;37.58
78483;BME280;67772;50.158;8.658;2023-03-02T07:42:14;100864.66;;;7.36;39.28
78483;BME280;67772;50.158;8.658;2023-03-02T07:44:39;100862.00;;;7.36;38.85
78483;BME280;67772;50.158;8.658;2023-03-02T07:47:05;100862.69;;;7.18;38.68
78483;BME280;67772;50.158;8.658;2023-03-02T07:49:30;100860.94;;;7.50;38.86
78483;BME280;67772;50.158;8.658;2023-03-02T07:51:55;100857.56;;;7.30;38.96
78483;BME280;67772;50.158;8.658;2023-03-02T07:54:21;100863.25;;;7.78;38.07
78483;BME280;67772;50.158;8.658;2023-03-02T07:56:46;100852.81;;;8.14;37.95
78483;BME280;67772;50.158;8.658;2023-03-02T07:59:12;100867.34;;;8.36;37.40
78483;BME280;67772;50.158;8.658;2023-03-02T08:01:38;100855.50;;;8.39;36.75
78483;BME280;67772;50.158;8.658;2023-03-02T08:04:04;100853.81;;;9.05;35.01
78483;BME280;67772;50.158;8.658;2023-03-02T08:06:29;100860.97;;;9.41;34.96
78483;BME280;67772;50.158;8.658;2023-03-02T08:08:55;100851.56;;;10.27;32.99
78483;BME280;67772;50.158;8.658;2023-03-02T08:11:20;100846.56;;;11.23;31.27
78483;BME280;67772;50.158;8.658;2023-03-02T08:13:45;100850.94;;;12.80;29.32
78483;BME280;67772;50.158;8.658;2023-03-02T08:16:13;100839.28;;;14.31;26.64
78483;BME280;67772;50.158;8.658;2023-03-02T08:18:39;100842.41;;;15.68;24.58
78483;BME280;67772;50.158;8.658;2023-03-02T08:21:20;100844.00;;;15.49;24.11
78483;BME280;67772;50.158;8.658;2023-03-02T08:23:46;100845.84;;;15.44;24.34
78483;BME280;67772;50.158;8.658;2023-03-02T08:26:12;100838.44;;;15.76;23.49
78483;BME280;67772;50.158;8.658;2023-03-02T08:28:38;100841.75;;;14.79;24.63
78483;BME280;67772;50.158;8.658;2023-03-02T08:31:04;100836.75;;;15.50;24.32
78483;BME280;67772;50.158;8.658;2023-03-02T08:33:30;100836.50;;;15.66;24.00
78483;BME280;67772;50.158;8.658;2023-03-02T08:36:02;100845.94;;;17.05;22.36
78483;BME280;67772;50.158;8.658;2023-03-02T08:38:28;100842.00;;;17.95;21.19
78483;BME280;67772;50.158;8.658;2023-03-02T08:40:54;100840.72;;;17.28;21.92
78483;BME280;67772;50.158;8.658;2023-03-02T08:43:20;100827.94;;;19.12;19.44
78483;BME280;67772;50.158;8.658;2023-03-02T08:45:55;100833.06;;;20.31;18.36
78483;BME280;67772;50.158;8.658;2023-03-02T08:48:24;100828.81;;;22.01;16.85
78483;BME280;67772;50.158;8.658;2023-03-02T08:53:19;100824.63;;;22.61;15.74
78483;BME280;67772;50.158;8.658;2023-03-02T08:55:44;100818.88;;;24.90;13.76
78483;BME280;67772;50.158;8.658;2023-03-02T08:58:10;100814.59;;;25.39;13.39
78483;BME280;67772;50.158;8.658;2023-03-02T09:00:35;100803.03;;;26.49;12.47
78483;BME280;67772;50.158;8.658;2023-03-02T09:03:00;100800.69;;;25.73;13.24
78483;BME280;67772;50.158;8.658;2023-03-02T09:05:26;100802.47;;;25.69;12.76
78483;BME280;67772;50.158;8.658;2023-03-02T09:07:51;100807.94;;;25.69;13.18
78483;BME280;67772;50.158;8.658;2023-03-02T09:10:17;100810.19;;;24.33;13.98
78483;BME280;67772;50.158;8.658;2023-03-02T09:12:42;100807.84;;;25.36;13.02
78483;BME280;67772;50.158;8.658;2023-03-02T09:15:07;100797.59;;;25.95;12.88
78483;BME280;67772;50.158;8.658;2023-03-02T09:17:33;100791.47;;;26.76;12.31
78483;BME280;67772;50.158;8.658;2023-03-02T09:19:58;100788.06;;;27.39;11.92
78483;BME280;67772;50.158;8.658;2023-03-02T09:22:24;100785.41;;;26.13;12.64
78483;BME280;67772;50.158;8.658;2023-03-02T09:24:49;100789.41;;;25.95;13.03
78483;BME280;67772;50.158;8.658;2023-03-02T09:27:15;100796.50;;;25.55;13.75
78483;BME280;67772;50.158;8.658;2023-03-02T09:29:40;100785.09;;;26.72;11.99
78483;BME280;67772;50.158;8.658;2023-03-02T09:32:06;100773.09;;;27.76;11.75
78483;BME280;67772;50.158;8.658;2023-03-02T09:34:31;100779.81;;;27.79;10.72
78483;BME280;67772;50.158;8.658;2023-03-02T09:36:56;100785.94;;;28.16;11.12
78483;BME280;67772;50.158;8.658;2023-03-02T09:39:22;100784.63;;;26.82;12.10
78483;BME280;67772;50.158;8.658;2023-03-02T09:45:17;100788.25;;;27.46;11.96
78483;BME280;67772;50.158;8.658;2023-03-02T09:50:35;100771.88;;;30.41;10.04
78483;BME280;67772;50.158;8.658;2023-03-02T09:55:36;100788.88;;;28.97;10.85
78483;BME280;67772;50.158;8.658;2023-03-02T09:58:14;100793.38;;;28.43;11.64
78483;BME280;67772;50.158;8.658;2023-03-02T10:00:42;100786.97;;;27.56;11.70
78483;BME280;67772;50.158;8.658;2023-03-02T10:03:21;100778.78;;;29.36;10.48
78483;BME280;67772;50.158;8.658;2023-03-02T10:05:48;100771.84;;;31.09;9.78
78483;BME280;67772;50.158;8.658;2023-03-02T10:08:17;100768.47;;;31.19;9.33
78483;BME280;67772;50.158;8.658;2023-03-02T10:10:43;100768.88;;;30.08;9.42
78483;BME280;67772;50.158;8.658;2023-03-02T10:13:14;100767.94;;;30.38;9.88
78483;BME280;67772;50.158;8.658;2023-03-02T10:23:41;100761.59;;;31.09;9.76
78483;BME280;67772;50.158;8.658;2023-03-02T10:31:44;100759.38;;;31.45;8.92
78483;BME280;67772;50.158;8.658;2023-03-02T10:34:11;100752.50;;;31.05;9.79
78483;BME280;67772;50.158;8.658;2023-03-02T10:36:39;100748.66;;;31.69;9.13
78483;BME280;67772;50.158;8.658;2023-03-02T10:39:15;100752.56;;;32.38;8.90
78483;BME280;67772;50.158;8.658;2023-03-02T10:41:53;100745.72;;;31.29;9.27
78483;BME280;67772;50.158;8.658;2023-03-02T10:46:49;100742.63;;;31.30;9.21
78483;BME280;67772;50.158;8.658;2023-03-02T10:49:24;100753.47;;;29.65;10.84
78483;BME280;67772;50.158;8.658;2023-03-02T10:52:00;100735.97;;;31.35;9.54
78483;BME280;67772;50.158;8.658;2023-03-02T10:54:27;100728.88;;;32.84;8.57
78483;BME280;67772;50.158;8.658;2023-03-02T10:56:56;100741.50;;;31.05;9.99
78483;BME280;67772;50.158;8.658;2023-03-02T11:02:20;100734.47;;;31.38;9.24
78483;BME280;67772;50.158;8.658;2023-03-02T11:04:58;100722.78;;;31.48;9.44
78483;BME280;67772;50.158;8.658;2023-03-02T11:07:26;100720.66;;;30.59;10.11
78483;BME280;67772;50.158;8.658;2023-03-02T11:12:23;100711.78;;;31.88;9.26
78483;BME280;67772;50.158;8.658;2023-03-02T11:15:00;100716.84;;;32.19;9.30
78483;BME280;67772;50.158;8.658;2023-03-02T11:17:35;100715.47;;;30.09;9.82
78483;BME280;67772;50.158;8.658;2023-03-02T11:20:03;100713.31;;;32.15;9.60
78483;BME280;67772;50.158;8.658;2023-03-02T11:22:40;100705.94;;;33.52;8.30
78483;BME280;67772;50.158;8.658;2023-03-02T11:25:18;100711.03;;;31.87;9.24
78483;BME280;67772;50.158;8.658;2023-03-02T11:27:46;100720.78;;;31.18;9.71
78483;BME280;67772;50.158;8.658;2023-03-02T11:30:19;100706.63;;;31.83;9.87
78483;BME280;67772;50.158;8.658;2023-03-02T11:33:01;100718.84;;;30.44;10.13
78483;BME280;67772;50.158;8.658;2023-03-02T11:35:43;100704.63;;;29.97;10.46
78483;BME280;67772;50.158;8.658;2023-03-02T11:38:17;100690.84;;;30.38;10.04
78483;BME280;67772;50.158;8.658;2023-03-02T11:40:46;100686.16;;;30.91;9.98
78483;BME280;67772;50.158;8.658;2023-03-02T11:43:14;100679.63;;;31.99;9.29
78483;BME280;67772;50.158;8.658;2023-03-02T11:45:56;100679.16;;;32.37;9.36
78483;BME280;67772;50.158;8.658;2023-03-02T11:48:28;100683.78;;;32.73;9.28
78483;BME280;67772;50.158;8.658;2023-03-02T11:50:59;100684.19;;;31.21;9.70
78483;BME280;67772;50.158;8.658;2023-03-02T11:53:35;100681.72;;;30.34;10.63
78483;BME280;67772;50.158;8.658;2023-03-02T11:56:04;100674.50;;;31.01;10.46
78483;BME280;67772;50.158;8.658;2023-03-02T11:58:30;100664.31;;;32.08;9.58
78483;BME280;67772;50.158;8.658;2023-03-02T12:00:57;100668.91;;;31.94;9.46
78483;BME280;67772;50.158;8.658;2023-03-02T12:06:05;100671.03;;;29.68;10.92
78483;BME280;67772;50.158;8.658;2023-03-02T12:11:23;100655.88;;;30.69;10.62
78483;BME280;67772;50.158;8.658;2023-03-02T12:14:00;100655.28;;;32.62;9.85
78483;BME280;67772;50.158;8.658;2023-03-02T12:16:41;100654.25;;;32.30;9.82
78483;BME280;67772;50.158;8.658;2023-03-02T12:19:11;100653.47;;;32.87;9.24
78483;BME280;67772;50.158;8.658;2023-03-02T12:21:42;100651.81;;;32.72;9.32
78483;BME280;67772;50.158;8.658;2023-03-02T12:24:23;100655.41;;;31.49;10.58
78483;BME280;67772;50.158;8.658;2023-03-02T12:29:42;100647.44;;;32.17;9.68
78483;BME280;67772;50.158;8.658;2023-03-02T12:34:44;100641.59;;;30.11;10.85
78483;BME280;67772;50.158;8.658;2023-03-02T12:45:19;100623.75;;;29.02;11.59
78483;BME280;67772;50.158;8.658;2023-03-02T12:48:04;100613.53;;;28.64;11.76
78483;BME280;67772;50.158;8.658;2023-03-02T12:50:38;100622.44;;;26.49;13.36
78483;BME280;67772;50.158;8.658;2023-03-02T12:53:13;100635.34;;;23.89;15.90
78483;BME280;67772;50.158;8.658;2023-03-02T12:55:40;100626.75;;;22.84;16.79
78483;BME280;67772;50.158;8.658;2023-03-02T12:58:15;100621.47;;;22.88;17.05
78483;BME280;67772;50.158;8.658;2023-03-02T13:00:52;100617.50;;;22.94;16.51
78483;BME280;67772;50.158;8.658;2023-03-02T13:03:17;100615.88;;;22.75;16.90
78483;BME280;67772;50.158;8.658;2023-03-02T13:05:43;100613.69;;;21.99;17.71
78483;BME280;67772;50.158;8.658;2023-03-02T13:08:21;100605.94;;;20.73;19.16
78483;BME280;67772;50.158;8.658;2023-03-02T13:10:56;100604.50;;;19.67;20.20
78483;BME280;67772;50.158;8.658;2023-03-02T13:13:25;100598.16;;;19.72;19.81
78483;BME280;67772;50.158;8.658;2023-03-02T13:15:54;100592.66;;;19.12;21.71
78483;BME280;67772;50.158;8.658;2023-03-02T13:18:23;100588.97;;;17.82;22.25
78483;BME280;67772;50.158;8.658;2023-03-02T13:20:49;100589.47;;;17.55;22.95
78483;BME280;67772;50.158;8.658;2023-03-02T13:23:16;100577.44;;;17.09;23.35
78483;BME280;67772;50.158;8.658;2023-03-02T13:28:26;100575.75;;;16.79;24.05
78483;BME280;67772;50.158;8.658;2023-03-02T13:31:02;100565.41;;;16.52;24.99
78483;BME280;67772;50.158;8.658;2023-03-02T13:33:29;100576.00;;;16.29;25.28
78483;BME280;67772;50.158;8.658;2023-03-02T13:35:55;100560.13;;;16.22;25.28
78483;BME280;67772;50.158;8.658;2023-03-02T13:38:36;100560.41;;;16.21;25.24
78483;BME280;67772;50.158;8.658;2023-03-02T13:41:03;100550.63;;;15.61;25.83
78483;BME280;67772;50.158;8.658;2023-03-02T13:48:23;100552.53;;;15.55;26.67
78483;BME280;67772;50.158;8.658;2023-03-02T13:51:20;100555.78;;;15.17;26.70
78483;BME280;67772;50.158;8.658;2023-03-02T13:53:52;100555.22;;;14.95;27.25
78483;BME280;67772;50.158;8.658;2023-03-02T13:56:18;100547.69;;;14.92;28.73
78483;BME280;67772;50.158;8.658;2023-03-02T13:58:44;100545.81;;;15.02;28.42
78483;BME280;67772;50.158;8.658;2023-03-02T14:01:11;100543.94;;;14.98;28.63
78483;BME280;67772;50.158;8.658;2023-03-02T14:03:37;100542.84;;;14.94;28.05
78483;BME280;67772;50.158;8.658;2023-03-02T14:06:03;100538.78;;;14.61;28.85